createdAt,value
2022-09-30T00:04:56.132Z,8.27
2022-09-30T00:14:57.472Z,8.26
2022-09-30T00:24:58.746Z,8.26
2022-09-30T00:35:00.130Z,8.17
2022-09-30T00:45:01.419Z,8.05
2022-09-30T00:55:02.726Z,8.00
2022-09-30T01:05:04.032Z,8.02
2022-09-30T01:15:05.400Z,8.03
2022-09-30T01:25:06.695Z,7.91
2022-09-30T01:35:08.008Z,7.94
2022-09-30T01:45:09.321Z,7.91
2022-09-30T01:55:10.763Z,7.92
2022-09-30T02:05:12.061Z,7.93
2022-09-30T02:15:13.377Z,8.01
2022-09-30T02:25:15.195Z,8.02
2022-09-30T02:35:16.552Z,8.08
2022-09-30T02:45:17.852Z,7.96
2022-09-30T02:55:19.358Z,7.92
2022-09-30T03:05:20.622Z,7.77
2022-09-30T03:15:21.923Z,7.78
2022-09-30T03:25:23.221Z,7.55
2022-09-30T03:35:24.602Z,7.50
2022-09-30T03:45:25.951Z,7.43
2022-09-30T03:55:27.239Z,7.44
2022-09-30T04:05:28.556Z,7.53
2022-09-30T04:15:29.858Z,7.53
2022-09-30T04:25:32.249Z,7.49
2022-09-30T04:35:33.542Z,7.34
2022-09-30T04:45:34.872Z,7.37
2022-09-30T04:55:36.218Z,7.38
2022-09-30T05:05:37.510Z,7.40
2022-09-30T05:15:38.804Z,7.36
2022-09-30T05:25:40.126Z,7.16
2022-09-30T05:35:41.590Z,6.99
2022-09-30T05:45:42.907Z,6.94
2022-09-30T05:55:44.192Z,7.08
2022-09-30T06:05:45.926Z,7.24
2022-09-30T06:15:47.663Z,7.22
2022-09-30T06:25:48.952Z,7.37
2022-09-30T06:35:50.220Z,7.57
2022-09-30T06:45:52.321Z,7.82
2022-09-30T06:55:54.170Z,7.94
2022-09-30T07:05:57.224Z,8.10
2022-09-30T07:15:58.517Z,8.41
2022-09-30T07:26:01.106Z,8.70
2022-09-30T07:36:07.977Z,9.10
2022-09-30T07:46:09.477Z,9.08
2022-09-30T07:56:10.800Z,9.19
2022-09-30T08:06:12.095Z,9.36
2022-09-30T08:16:13.442Z,9.58
2022-09-30T08:26:15.541Z,9.65
2022-09-30T08:36:16.904Z,9.96
2022-09-30T08:46:18.265Z,10.14
2022-09-30T08:56:19.612Z,10.24
2022-09-30T09:06:20.929Z,10.43
2022-09-30T09:16:23.125Z,10.47
2022-09-30T09:26:24.494Z,11.07
2022-09-30T09:36:25.785Z,11.25
2022-09-30T09:46:27.212Z,12.02
2022-09-30T09:56:32.249Z,12.07
2022-09-30T10:06:33.913Z,11.85
2022-09-30T10:16:38.248Z,12.05
2022-09-30T10:26:40.058Z,11.74
2022-09-30T10:36:43.384Z,12.02
2022-09-30T10:46:44.931Z,12.17
2022-09-30T10:56:46.371Z,12.20
2022-09-30T11:06:47.574Z,12.78
2022-09-30T11:16:48.971Z,12.93
2022-09-30T11:26:50.321Z,13.16
2022-09-30T11:36:51.636Z,13.21
2022-09-30T11:46:52.976Z,13.22
2022-09-30T11:56:54.317Z,13.57
2022-09-30T12:06:55.600Z,13.72
2022-09-30T12:16:57.721Z,13.88
2022-09-30T12:26:59.135Z,14.15
2022-09-30T12:37:00.414Z,14.39
2022-09-30T12:47:02.716Z,14.40
2022-09-30T12:57:04.074Z,14.16
2022-09-30T13:07:05.332Z,14.81
2022-09-30T13:17:06.568Z,14.87
2022-09-30T13:27:07.766Z,15.02
2022-09-30T13:37:09.458Z,15.10
2022-09-30T13:47:10.681Z,15.21
2022-09-30T13:57:11.983Z,15.05
2022-09-30T14:07:14.206Z,15.50
2022-09-30T14:17:15.581Z,15.07
2022-09-30T14:27:16.960Z,15.00
2022-09-30T14:37:18.655Z,15.01
2022-09-30T14:47:22.875Z,15.33
2022-09-30T14:57:24.215Z,15.20
2022-09-30T15:07:25.710Z,15.13
2022-09-30T15:17:30.076Z,14.84
2022-09-30T15:27:31.612Z,14.81
2022-09-30T15:37:33.900Z,14.72
2022-09-30T15:47:35.448Z,14.60
2022-09-30T15:57:37.445Z,14.42
2022-09-30T16:07:38.973Z,14.28
2022-09-30T16:17:40.334Z,13.98
2022-09-30T16:27:41.875Z,13.89
2022-09-30T16:37:44.194Z,13.56
2022-09-30T16:47:45.903Z,13.04
2022-09-30T16:57:47.225Z,12.61
2022-09-30T17:07:49.586Z,12.27
2022-09-30T17:17:52.832Z,11.96
2022-09-30T17:27:54.346Z,11.71
2022-09-30T17:37:56.481Z,11.63
2022-09-30T17:47:57.767Z,11.25
2022-09-30T17:57:59.248Z,10.98
2022-09-30T18:08:00.570Z,10.89
2022-09-30T18:18:01.875Z,10.84
2022-09-30T18:28:04.261Z,10.70
2022-09-30T18:38:05.614Z,10.51
2022-09-30T18:48:07.560Z,10.32
2022-09-30T18:58:09.083Z,10.22
2022-09-30T19:08:10.615Z,10.07
2022-09-30T19:18:12.125Z,9.86
2022-09-30T19:28:14.668Z,9.71
2022-09-30T19:38:17.237Z,9.64
2022-09-30T19:48:20.270Z,9.52
2022-09-30T19:58:21.845Z,9.39
2022-09-30T20:08:23.073Z,9.29
2022-09-30T20:18:24.427Z,9.32
2022-09-30T20:28:25.891Z,9.23
2022-09-30T20:38:27.327Z,9.10
2022-09-30T20:48:32.613Z,9.07
2022-09-30T20:58:34.811Z,8.92
2022-09-30T21:08:38.752Z,8.93
2022-09-30T21:18:41.058Z,8.74
2022-09-30T21:28:45.598Z,8.71
2022-09-30T21:38:50.080Z,8.58
2022-09-30T21:48:53.706Z,8.57
2022-09-30T21:58:55.401Z,8.67
2022-09-30T22:08:56.689Z,8.76
2022-09-30T22:19:00.130Z,8.79
2022-09-30T22:29:01.467Z,8.81
2022-09-30T22:39:02.667Z,8.72
2022-09-30T22:49:03.903Z,8.63
2022-09-30T22:59:06.311Z,8.65
2022-09-30T23:09:07.628Z,8.62
2022-09-30T23:19:08.931Z,8.59
2022-09-30T23:29:10.280Z,8.66
2022-09-30T23:39:12.610Z,8.75
2022-09-30T23:49:13.980Z,8.77
2022-09-30T23:59:15.177Z,8.65
